sensor_id;sensor_type;location;lat;lon;timestamp;temperature;humidity
2935;DHT22;2462;51.456;7.248;2023-06-10T00:01:48;25.50;76.40
2935;DHT22;2462;51.456;7.248;2023-06-10T00:04:14;25.40;76.40
2935;DHT22;2462;51.456;7.248;2023-06-10T00:06:40;25.40;76.50
2935;DHT22;2462;51.456;7.248;2023-06-10T00:09:06;25.40;76.60
2935;DHT22;2462;51.456;7.248;2023-06-10T00:11:35;25.40;76.60
2935;DHT22;2462;51.456;7.248;2023-06-10T00:14:01;25.40;76.60
2935;DHT22;2462;51.456;7.248;2023-06-10T00:16:27;25.40;76.80
2935;DHT22;2462;51.456;7.248;2023-06-10T00:18:53;25.40;76.60
2935;DHT22;2462;51.456;7.248;2023-06-10T00:21:21;25.30;76.70
2935;DHT22;2462;51.456;7.248;2023-06-10T00:23:46;25.30;76.70
2935;DHT22;2462;51.456;7.248;2023-06-10T00:26:12;25.30;76.80
2935;DHT22;2462;51.456;7.248;2023-06-10T00:28:37;25.30;76.90
2935;DHT22;2462;51.456;7.248;2023-06-10T00:31:03;25.30;77.00
2935;DHT22;2462;51.456;7.248;2023-06-10T00:33:29;25.30;77.10
2935;DHT22;2462;51.456;7.248;2023-06-10T00:35:55;25.20;77.00
2935;DHT22;2462;51.456;7.248;2023-06-10T00:38:20;25.20;77.20
2935;DHT22;2462;51.456;7.248;2023-06-10T00:40:46;25.20;77.10
2935;DHT22;2462;51.456;7.248;2023-06-10T00:43:12;25.20;77.20
2935;DHT22;2462;51.456;7.248;2023-06-10T00:45:37;25.10;77.20
2935;DHT22;2462;51.456;7.248;2023-06-10T00:48:04;25.20;77.20
2935;DHT22;2462;51.456;7.248;2023-06-10T00:50:30;25.10;77.20
2935;DHT22;2462;51.456;7.248;2023-06-10T00:52:56;25.10;77.40
2935;DHT22;2462;51.456;7.248;2023-06-10T00:55:23;25.10;77.50
2935;DHT22;2462;51.456;7.248;2023-06-10T00:57:48;25.10;77.40
2935;DHT22;2462;51.456;7.248;2023-06-10T01:00:15;25.10;77.60
2935;DHT22;2462;51.456;7.248;2023-06-10T01:02:41;25.00;77.50
2935;DHT22;2462;51.456;7.248;2023-06-10T01:05:10;25.00;77.50
2935;DHT22;2462;51.456;7.248;2023-06-10T01:10:41;25.00;77.60
2935;DHT22;2462;51.456;7.248;2023-06-10T01:13:10;24.90;77.50
2935;DHT22;2462;51.456;7.248;2023-06-10T01:15:37;24.90;77.60
2935;DHT22;2462;51.456;7.248;2023-06-10T01:18:08;24.90;77.70
2935;DHT22;2462;51.456;7.248;2023-06-10T01:20:43;24.90;77.70
2935;DHT22;2462;51.456;7.248;2023-06-10T01:23:10;24.90;78.50
2935;DHT22;2462;51.456;7.248;2023-06-10T01:25:38;24.90;77.70
2935;DHT22;2462;51.456;7.248;2023-06-10T01:28:13;24.90;78.20
2935;DHT22;2462;51.456;7.248;2023-06-10T01:33:35;24.80;77.80
2935;DHT22;2462;51.456;7.248;2023-06-10T01:36:03;24.80;77.90
2935;DHT22;2462;51.456;7.248;2023-06-10T01:38:33;24.80;77.90
2935;DHT22;2462;51.456;7.248;2023-06-10T01:41:00;24.80;77.90
2935;DHT22;2462;51.456;7.248;2023-06-10T01:43:26;24.80;78.10
2935;DHT22;2462;51.456;7.248;2023-06-10T01:45:52;24.80;78.00
2935;DHT22;2462;51.456;7.248;2023-06-10T01:48:17;24.70;78.00
2935;DHT22;2462;51.456;7.248;2023-06-10T01:50:43;24.70;78.20
2935;DHT22;2462;51.456;7.248;2023-06-10T01:53:09;24.70;78.10
2935;DHT22;2462;51.456;7.248;2023-06-10T01:55:34;24.70;78.00
2935;DHT22;2462;51.456;7.248;2023-06-10T01:58:00;24.60;78.00
2935;DHT22;2462;51.456;7.248;2023-06-10T02:00:25;24.60;78.00
2935;DHT22;2462;51.456;7.248;2023-06-10T02:02:51;24.60;78.20
2935;DHT22;2462;51.456;7.248;2023-06-10T02:05:17;24.60;78.20
2935;DHT22;2462;51.456;7.248;2023-06-10T02:07:42;24.60;78.20
2935;DHT22;2462;51.456;7.248;2023-06-10T02:10:08;24.50;78.30
2935;DHT22;2462;51.456;7.248;2023-06-10T02:12:34;24.50;78.30
2935;DHT22;2462;51.456;7.248;2023-06-10T02:14:59;24.60;78.50
2935;DHT22;2462;51.456;7.248;2023-06-10T02:17:25;24.50;78.40
2935;DHT22;2462;51.456;7.248;2023-06-10T02:19:51;24.50;78.40
2935;DHT22;2462;51.456;7.248;2023-06-10T02:22:22;24.50;78.50
2935;DHT22;2462;51.456;7.248;2023-06-10T02:24:48;24.50;78.50
2935;DHT22;2462;51.456;7.248;2023-06-10T02:27:15;24.50;78.60
2935;DHT22;2462;51.456;7.248;2023-06-10T02:29:41;24.50;78.60
2935;DHT22;2462;51.456;7.248;2023-06-10T02:32:07;24.40;78.50
2935;DHT22;2462;51.456;7.248;2023-06-10T02:34:33;24.40;78.70
2935;DHT22;2462;51.456;7.248;2023-06-10T02:36:59;24.40;78.70
2935;DHT22;2462;51.456;7.248;2023-06-10T02:39:24;24.40;78.70
2935;DHT22;2462;51.456;7.248;2023-06-10T02:41:50;24.40;78.80
2935;DHT22;2462;51.456;7.248;2023-06-10T02:44:18;24.40;78.90
2935;DHT22;2462;51.456;7.248;2023-06-10T02:46:43;24.30;78.80
2935;DHT22;2462;51.456;7.248;2023-06-10T02:49:09;24.30;79.00
2935;DHT22;2462;51.456;7.248;2023-06-10T02:51:34;24.30;79.00
2935;DHT22;2462;51.456;7.248;2023-06-10T02:54:00;24.30;79.00
2935;DHT22;2462;51.456;7.248;2023-06-10T02:56:26;24.30;79.90
2935;DHT22;2462;51.456;7.248;2023-06-10T02:58:52;24.20;79.10
2935;DHT22;2462;51.456;7.248;2023-06-10T03:01:17;24.20;79.10
2935;DHT22;2462;51.456;7.248;2023-06-10T03:03:44;24.20;79.20
2935;DHT22;2462;51.456;7.248;2023-06-10T03:06:12;24.20;79.30
2935;DHT22;2462;51.456;7.248;2023-06-10T03:08:38;24.20;79.30
2935;DHT22;2462;51.456;7.248;2023-06-10T03:11:03;24.20;79.40
2935;DHT22;2462;51.456;7.248;2023-06-10T03:13:29;24.10;79.30
2935;DHT22;2462;51.456;7.248;2023-06-10T03:15:55;24.10;79.30
2935;DHT22;2462;51.456;7.248;2023-06-10T03:18:20;24.10;79.40
2935;DHT22;2462;51.456;7.248;2023-06-10T03:20:48;24.10;79.40
2935;DHT22;2462;51.456;7.248;2023-06-10T03:23:13;24.10;79.50
2935;DHT22;2462;51.456;7.248;2023-06-10T03:25:41;24.10;79.50
2935;DHT22;2462;51.456;7.248;2023-06-10T03:28:06;24.10;79.60
2935;DHT22;2462;51.456;7.248;2023-06-10T03:30:32;24.10;79.60
2935;DHT22;2462;51.456;7.248;2023-06-10T03:32:57;24.10;79.60
2935;DHT22;2462;51.456;7.248;2023-06-10T03:35:23;24.10;79.70
2935;DHT22;2462;51.456;7.248;2023-06-10T03:37:48;24.10;79.80
2935;DHT22;2462;51.456;7.248;2023-06-10T03:40:14;24.00;79.60
2935;DHT22;2462;51.456;7.248;2023-06-10T03:42:40;24.00;79.70
2935;DHT22;2462;51.456;7.248;2023-06-10T03:45:06;24.10;79.80
2935;DHT22;2462;51.456;7.248;2023-06-10T03:47:35;24.10;79.80
2935;DHT22;2462;51.456;7.248;2023-06-10T03:50:01;24.10;80.60
2935;DHT22;2462;51.456;7.248;2023-06-10T03:52:28;24.10;80.00
2935;DHT22;2462;51.456;7.248;2023-06-10T03:54:54;24.00;79.80
2935;DHT22;2462;51.456;7.248;2023-06-10T03:57:19;24.10;79.90
2935;DHT22;2462;51.456;7.248;2023-06-10T03:59:45;24.10;80.00
2935;DHT22;2462;51.456;7.248;2023-06-10T04:02:10;24.10;80.00
2935;DHT22;2462;51.456;7.248;2023-06-10T04:04:36;24.10;80.00
2935;DHT22;2462;51.456;7.248;2023-06-10T04:07:03;24.10;80.00
2935;DHT22;2462;51.456;7.248;2023-06-10T04:09:29;24.10;80.10
2935;DHT22;2462;51.456;7.248;2023-06-10T04:11:54;24.10;80.00
2935;DHT22;2462;51.456;7.248;2023-06-10T04:14:20;24.10;80.10
2935;DHT22;2462;51.456;7.248;2023-06-10T04:16:45;24.20;80.10
2935;DHT22;2462;51.456;7.248;2023-06-10T04:19:11;24.20;80.10
2935;DHT22;2462;51.456;7.248;2023-06-10T04:21:37;24.30;80.20
2935;DHT22;2462;51.456;7.248;2023-06-10T04:24:02;24.40;80.30
2935;DHT22;2462;51.456;7.248;2023-06-10T04:26:28;24.50;80.10
2935;DHT22;2462;51.456;7.248;2023-06-10T04:28:54;24.50;79.90
2935;DHT22;2462;51.456;7.248;2023-06-10T04:31:19;24.60;79.80
2935;DHT22;2462;51.456;7.248;2023-06-10T04:33:45;24.70;79.70
2935;DHT22;2462;51.456;7.248;2023-06-10T04:36:11;24.80;79.60
2935;DHT22;2462;51.456;7.248;2023-06-10T04:38:36;24.90;79.50
2935;DHT22;2462;51.456;7.248;2023-06-10T04:41:02;24.90;79.40
2935;DHT22;2462;51.456;7.248;2023-06-10T04:43:27;25.00;79.30
2935;DHT22;2462;51.456;7.248;2023-06-10T04:45:54;25.20;79.20
2935;DHT22;2462;51.456;7.248;2023-06-10T04:48:20;25.20;79.10
2935;DHT22;2462;51.456;7.248;2023-06-10T04:50:45;25.30;79.00
2935;DHT22;2462;51.456;7.248;2023-06-10T04:53:11;25.30;79.00
2935;DHT22;2462;51.456;7.248;2023-06-10T04:55:36;25.40;79.10
2935;DHT22;2462;51.456;7.248;2023-06-10T04:58:02;25.40;78.90
2935;DHT22;2462;51.456;7.248;2023-06-10T05:00:27;25.60;78.90
2935;DHT22;2462;51.456;7.248;2023-06-10T05:02:53;25.60;78.90
2935;DHT22;2462;51.456;7.248;2023-06-10T05:05:18;25.60;78.80
2935;DHT22;2462;51.456;7.248;2023-06-10T05:07:44;25.70;78.80
2935;DHT22;2462;51.456;7.248;2023-06-10T05:10:10;25.80;79.00
2935;DHT22;2462;51.456;7.248;2023-06-10T05:12:40;25.80;78.80
2935;DHT22;2462;51.456;7.248;2023-06-10T05:15:07;25.90;78.90
2935;DHT22;2462;51.456;7.248;2023-06-10T05:17:32;26.00;78.90
2935;DHT22;2462;51.456;7.248;2023-06-10T05:19:58;26.00;78.70
2935;DHT22;2462;51.456;7.248;2023-06-10T05:22:23;26.10;78.90
2935;DHT22;2462;51.456;7.248;2023-06-10T05:24:52;26.20;78.80
2935;DHT22;2462;51.456;7.248;2023-06-10T05:27:18;26.20;78.70
2935;DHT22;2462;51.456;7.248;2023-06-10T05:29:44;26.30;78.70
2935;DHT22;2462;51.456;7.248;2023-06-10T05:32:10;26.40;78.80
2935;DHT22;2462;51.456;7.248;2023-06-10T05:34:36;26.40;78.70
2935;DHT22;2462;51.456;7.248;2023-06-10T05:37:02;26.50;78.80
2935;DHT22;2462;51.456;7.248;2023-06-10T05:39:27;26.50;78.70
2935;DHT22;2462;51.456;7.248;2023-06-10T05:41:53;26.60;78.80
2935;DHT22;2462;51.456;7.248;2023-06-10T05:44:18;26.70;79.00
2935;DHT22;2462;51.456;7.248;2023-06-10T05:46:44;26.70;79.00
2935;DHT22;2462;51.456;7.248;2023-06-10T05:49:09;26.80;78.80
2935;DHT22;2462;51.456;7.248;2023-06-10T05:51:35;26.90;79.00
2935;DHT22;2462;51.456;7.248;2023-06-10T05:54:02;27.00;78.90
2935;DHT22;2462;51.456;7.248;2023-06-10T05:56:27;27.00;78.70
2935;DHT22;2462;51.456;7.248;2023-06-10T05:58:53;27.20;79.00
2935;DHT22;2462;51.456;7.248;2023-06-10T06:01:18;27.20;78.80
2935;DHT22;2462;51.456;7.248;2023-06-10T06:03:44;27.30;78.70
2935;DHT22;2462;51.456;7.248;2023-06-10T06:06:09;27.40;78.70
2935;DHT22;2462;51.456;7.248;2023-06-10T06:08:35;27.50;78.60
2935;DHT22;2462;51.456;7.248;2023-06-10T06:11:01;27.60;78.70
2935;DHT22;2462;51.456;7.248;2023-06-10T06:13:26;27.70;78.50
2935;DHT22;2462;51.456;7.248;2023-06-10T06:15:52;27.30;67.90
2935;DHT22;2462;51.456;7.248;2023-06-10T06:18:17;26.90;67.40
2935;DHT22;2462;51.456;7.248;2023-06-10T06:20:44;26.40;67.80
2935;DHT22;2462;51.456;7.248;2023-06-10T06:23:09;26.10;68.30
2935;DHT22;2462;51.456;7.248;2023-06-10T06:25:36;25.80;68.40
2935;DHT22;2462;51.456;7.248;2023-06-10T06:28:02;25.50;69.40
2935;DHT22;2462;51.456;7.248;2023-06-10T06:30:28;25.30;70.30
2935;DHT22;2462;51.456;7.248;2023-06-10T06:32:54;25.30;70.50
2935;DHT22;2462;51.456;7.248;2023-06-10T06:35:20;25.20;70.50
2935;DHT22;2462;51.456;7.248;2023-06-10T06:37:46;25.20;70.80
2935;DHT22;2462;51.456;7.248;2023-06-10T06:40:11;25.20;70.40
2935;DHT22;2462;51.456;7.248;2023-06-10T06:42:37;25.10;70.70
2935;DHT22;2462;51.456;7.248;2023-06-10T06:45:03;25.10;70.40
2935;DHT22;2462;51.456;7.248;2023-06-10T06:47:28;25.10;70.50
2935;DHT22;2462;51.456;7.248;2023-06-10T06:49:54;25.10;70.30
2935;DHT22;2462;51.456;7.248;2023-06-10T06:52:19;25.20;70.20
2935;DHT22;2462;51.456;7.248;2023-06-10T06:54:45;25.10;70.70
2935;DHT22;2462;51.456;7.248;2023-06-10T06:57:10;25.00;70.90
2935;DHT22;2462;51.456;7.248;2023-06-10T06:59:36;25.00;70.70
2935;DHT22;2462;51.456;7.248;2023-06-10T07:02:02;25.10;70.20
2935;DHT22;2462;51.456;7.248;2023-06-10T07:04:28;25.20;70.80
2935;DHT22;2462;51.456;7.248;2023-06-10T07:06:54;25.30;71.00
2935;DHT22;2462;51.456;7.248;2023-06-10T07:09:19;25.20;72.00
2935;DHT22;2462;51.456;7.248;2023-06-10T07:11:45;25.10;72.50
2935;DHT22;2462;51.456;7.248;2023-06-10T07:14:10;25.20;70.20
2935;DHT22;2462;51.456;7.248;2023-06-10T07:16:36;25.30;70.70
2935;DHT22;2462;51.456;7.248;2023-06-10T07:19:01;25.30;69.60
2935;DHT22;2462;51.456;7.248;2023-06-10T07:21:27;25.40;70.40
2935;DHT22;2462;51.456;7.248;2023-06-10T07:23:53;25.40;71.30
2935;DHT22;2462;51.456;7.248;2023-06-10T07:26:21;25.50;72.40
2935;DHT22;2462;51.456;7.248;2023-06-10T07:28:46;25.60;69.60
2935;DHT22;2462;51.456;7.248;2023-06-10T07:31:12;25.60;68.90
2935;DHT22;2462;51.456;7.248;2023-06-10T07:33:37;25.60;68.80
2935;DHT22;2462;51.456;7.248;2023-06-10T07:36:06;25.60;68.50
2935;DHT22;2462;51.456;7.248;2023-06-10T07:38:32;25.70;68.30
2935;DHT22;2462;51.456;7.248;2023-06-10T07:40:58;25.70;68.70
2935;DHT22;2462;51.456;7.248;2023-06-10T07:43:24;25.70;68.70
2935;DHT22;2462;51.456;7.248;2023-06-10T07:45:50;25.70;70.00
2935;DHT22;2462;51.456;7.248;2023-06-10T07:48:15;25.80;68.60
2935;DHT22;2462;51.456;7.248;2023-06-10T07:50:41;25.90;69.20
2935;DHT22;2462;51.456;7.248;2023-06-10T07:53:06;25.90;68.10
2935;DHT22;2462;51.456;7.248;2023-06-10T07:55:32;25.90;67.60
2935;DHT22;2462;51.456;7.248;2023-06-10T07:57:57;26.00;67.80
2935;DHT22;2462;51.456;7.248;2023-06-10T08:00:23;26.00;67.60
2935;DHT22;2462;51.456;7.248;2023-06-10T08:02:49;26.10;68.10
2935;DHT22;2462;51.456;7.248;2023-06-10T08:05:14;26.10;67.40
2935;DHT22;2462;51.456;7.248;2023-06-10T08:07:40;26.20;67.60
2935;DHT22;2462;51.456;7.248;2023-06-10T08:10:06;26.40;67.70
2935;DHT22;2462;51.456;7.248;2023-06-10T08:12:33;26.40;67.70
2935;DHT22;2462;51.456;7.248;2023-06-10T08:14:59;26.60;73.00
2935;DHT22;2462;51.456;7.248;2023-06-10T08:17:24;26.60;70.60
2935;DHT22;2462;51.456;7.248;2023-06-10T08:19:50;26.60;68.80
2935;DHT22;2462;51.456;7.248;2023-06-10T08:22:15;26.60;68.70
2935;DHT22;2462;51.456;7.248;2023-06-10T08:27:07;26.80;65.50
2935;DHT22;2462;51.456;7.248;2023-06-10T08:29:33;26.80;66.30
2935;DHT22;2462;51.456;7.248;2023-06-10T08:31:58;26.80;65.60
2935;DHT22;2462;51.456;7.248;2023-06-10T08:34:24;26.90;65.60
2935;DHT22;2462;51.456;7.248;2023-06-10T08:36:50;27.00;63.90
2935;DHT22;2462;51.456;7.248;2023-06-10T08:39:19;27.00;64.50
2935;DHT22;2462;51.456;7.248;2023-06-10T08:41:56;27.10;63.90
2935;DHT22;2462;51.456;7.248;2023-06-10T08:44:29;27.10;64.20
2935;DHT22;2462;51.456;7.248;2023-06-10T08:46:59;27.20;65.10
2935;DHT22;2462;51.456;7.248;2023-06-10T08:49:26;27.30;65.10
2935;DHT22;2462;51.456;7.248;2023-06-10T08:51:58;27.30;65.50
2935;DHT22;2462;51.456;7.248;2023-06-10T08:54:28;27.30;65.40
2935;DHT22;2462;51.456;7.248;2023-06-10T08:56:55;27.40;64.50
2935;DHT22;2462;51.456;7.248;2023-06-10T08:59:23;27.40;63.90
2935;DHT22;2462;51.456;7.248;2023-06-10T09:01:50;27.30;63.70
2935;DHT22;2462;51.456;7.248;2023-06-10T09:04:17;27.40;64.90
2935;DHT22;2462;51.456;7.248;2023-06-10T09:06:43;27.40;65.60
2935;DHT22;2462;51.456;7.248;2023-06-10T09:09:10;27.40;64.60
2935;DHT22;2462;51.456;7.248;2023-06-10T09:11:35;27.50;64.70
2935;DHT22;2462;51.456;7.248;2023-06-10T09:14:01;27.60;64.40
2935;DHT22;2462;51.456;7.248;2023-06-10T09:16:27;27.60;65.00
2935;DHT22;2462;51.456;7.248;2023-06-10T09:18:53;27.60;64.90
2935;DHT22;2462;51.456;7.248;2023-06-10T09:21:24;27.70;65.30
2935;DHT22;2462;51.456;7.248;2023-06-10T09:23:50;27.70;66.00
2935;DHT22;2462;51.456;7.248;2023-06-10T09:26:16;27.80;66.70
2935;DHT22;2462;51.456;7.248;2023-06-10T09:28:48;27.80;66.00
2935;DHT22;2462;51.456;7.248;2023-06-10T09:31:14;28.00;66.90
2935;DHT22;2462;51.456;7.248;2023-06-10T09:36:09;28.20;64.60
2935;DHT22;2462;51.456;7.248;2023-06-10T09:38:35;28.20;65.10
2935;DHT22;2462;51.456;7.248;2023-06-10T09:41:01;28.30;64.60
2935;DHT22;2462;51.456;7.248;2023-06-10T09:43:41;28.20;65.20
2935;DHT22;2462;51.456;7.248;2023-06-10T09:46:14;28.20;65.90
2935;DHT22;2462;51.456;7.248;2023-06-10T09:48:41;28.30;66.10
2935;DHT22;2462;51.456;7.248;2023-06-10T09:53:38;28.50;64.20
2935;DHT22;2462;51.456;7.248;2023-06-10T09:56:04;28.60;64.70
2935;DHT22;2462;51.456;7.248;2023-06-10T09:58:37;28.60;64.50
2935;DHT22;2462;51.456;7.248;2023-06-10T10:01:10;28.70;64.60
2935;DHT22;2462;51.456;7.248;2023-06-10T10:04:05;28.80;63.40
2935;DHT22;2462;51.456;7.248;2023-06-10T10:06:31;28.80;63.40
2935;DHT22;2462;51.456;7.248;2023-06-10T10:08:57;29.00;64.00
2935;DHT22;2462;51.456;7.248;2023-06-10T10:11:23;29.10;63.60
2935;DHT22;2462;51.456;7.248;2023-06-10T10:13:51;29.10;64.00
2935;DHT22;2462;51.456;7.248;2023-06-10T10:16:21;29.20;63.70
2935;DHT22;2462;51.456;7.248;2023-06-10T10:18:53;29.30;63.80
2935;DHT22;2462;51.456;7.248;2023-06-10T10:21:23;29.40;62.80
2935;DHT22;2462;51.456;7.248;2023-06-10T10:24:07;29.50;63.00
2935;DHT22;2462;51.456;7.248;2023-06-10T10:26:36;29.60;63.30
2935;DHT22;2462;51.456;7.248;2023-06-10T10:31:50;29.70;61.90
2935;DHT22;2462;51.456;7.248;2023-06-10T10:34:21;29.70;62.60
2935;DHT22;2462;51.456;7.248;2023-06-10T10:36:47;29.80;60.40
2935;DHT22;2462;51.456;7.248;2023-06-10T10:39:13;29.90;62.00
2935;DHT22;2462;51.456;7.248;2023-06-10T10:41:39;29.90;60.80
2935;DHT22;2462;51.456;7.248;2023-06-10T10:44:06;30.00;61.90
2935;DHT22;2462;51.456;7.248;2023-06-10T10:46:49;29.90;60.00
2935;DHT22;2462;51.456;7.248;2023-06-10T10:49:15;29.90;61.50
2935;DHT22;2462;51.456;7.248;2023-06-10T10:52:00;30.00;61.90
2935;DHT22;2462;51.456;7.248;2023-06-10T10:54:36;30.00;59.40
2935;DHT22;2462;51.456;7.248;2023-06-10T11:02:32;29.90;57.40
2935;DHT22;2462;51.456;7.248;2023-06-10T11:04:58;29.90;59.40
2935;DHT22;2462;51.456;7.248;2023-06-10T11:07:25;29.90;58.50
2935;DHT22;2462;51.456;7.248;2023-06-10T11:09:58;29.90;59.90
2935;DHT22;2462;51.456;7.248;2023-06-10T11:15:13;30.00;58.70
2935;DHT22;2462;51.456;7.248;2023-06-10T11:18:06;30.10;59.30
2935;DHT22;2462;51.456;7.248;2023-06-10T11:25:50;30.10;57.80
2935;DHT22;2462;51.456;7.248;2023-06-10T11:28:19;30.20;58.40
2935;DHT22;2462;51.456;7.248;2023-06-10T11:30:45;30.20;57.10
2935;DHT22;2462;51.456;7.248;2023-06-10T11:33:16;30.20;58.00
2935;DHT22;2462;51.456;7.248;2023-06-10T11:35:42;30.20;58.40
2935;DHT22;2462;51.456;7.248;2023-06-10T11:38:08;30.20;58.70
2935;DHT22;2462;51.456;7.248;2023-06-10T11:43:00;30.30;58.10
2935;DHT22;2462;51.456;7.248;2023-06-10T11:45:26;30.40;58.80
2935;DHT22;2462;51.456;7.248;2023-06-10T11:47:56;30.50;57.80
2935;DHT22;2462;51.456;7.248;2023-06-10T11:50:32;30.50;56.60
2935;DHT22;2462;51.456;7.248;2023-06-10T11:52:58;30.40;56.50
2935;DHT22;2462;51.456;7.248;2023-06-10T11:55:25;30.40;56.70
2935;DHT22;2462;51.456;7.248;2023-06-10T11:57:51;30.20;56.60
2935;DHT22;2462;51.456;7.248;2023-06-10T12:00:23;30.20;56.70
2935;DHT22;2462;51.456;7.248;2023-06-10T12:02:56;30.20;57.50
2935;DHT22;2462;51.456;7.248;2023-06-10T12:05:23;30.40;58.40
2935;DHT22;2462;51.456;7.248;2023-06-10T12:07:48;30.50;58.40
2935;DHT22;2462;51.456;7.248;2023-06-10T12:10:14;30.50;56.30
2935;DHT22;2462;51.456;7.248;2023-06-10T12:12:39;30.60;56.10
2935;DHT22;2462;51.456;7.248;2023-06-10T12:15:06;30.60;55.80
2935;DHT22;2462;51.456;7.248;2023-06-10T12:19:59;30.50;55.00
2935;DHT22;2462;51.456;7.248;2023-06-10T12:22:25;30.40;55.00
2935;DHT22;2462;51.456;7.248;2023-06-10T12:24:58;30.30;55.40
2935;DHT22;2462;51.456;7.248;2023-06-10T12:27:29;30.30;55.70
2935;DHT22;2462;51.456;7.248;2023-06-10T12:29:55;30.30;55.60
2935;DHT22;2462;51.456;7.248;2023-06-10T12:32:21;30.30;56.00
2935;DHT22;2462;51.456;7.248;2023-06-10T12:35:02;30.40;55.40
2935;DHT22;2462;51.456;7.248;2023-06-10T12:37:29;30.40;55.00
2935;DHT22;2462;51.456;7.248;2023-06-10T12:39:55;30.50;55.10
2935;DHT22;2462;51.456;7.248;2023-06-10T12:42:22;30.50;54.60
2935;DHT22;2462;51.456;7.248;2023-06-10T12:44:53;30.40;55.50
2935;DHT22;2462;51.456;7.248;2023-06-10T12:47:20;30.40;56.00
2935;DHT22;2462;51.456;7.248;2023-06-10T12:49:45;30.30;54.50
2935;DHT22;2462;51.456;7.248;2023-06-10T12:52:11;30.20;54.20
2935;DHT22;2462;51.456;7.248;2023-06-10T12:54:36;30.20;55.00
2935;DHT22;2462;51.456;7.248;2023-06-10T12:57:02;30.10;56.00
2935;DHT22;2462;51.456;7.248;2023-06-10T12:59:28;30.20;55.80
2935;DHT22;2462;51.456;7.248;2023-06-10T13:01:54;30.30;56.50
2935;DHT22;2462;51.456;7.248;2023-06-10T13:04:20;30.40;55.20
2935;DHT22;2462;51.456;7.248;2023-06-10T13:06:47;30.40;53.90
2935;DHT22;2462;51.456;7.248;2023-06-10T13:09:13;30.50;54.40
2935;DHT22;2462;51.456;7.248;2023-06-10T13:11:39;30.50;54.40
2935;DHT22;2462;51.456;7.248;2023-06-10T13:14:06;30.40;53.40
2935;DHT22;2462;51.456;7.248;2023-06-10T13:16:32;30.40;53.20
2935;DHT22;2462;51.456;7.248;2023-06-10T13:18:58;30.40;53.30
2935;DHT22;2462;51.456;7.248;2023-06-10T13:21:23;30.50;53.70
2935;DHT22;2462;51.456;7.248;2023-06-10T13:23:49;30.50;53.50
2935;DHT22;2462;51.456;7.248;2023-06-10T13:26:15;30.50;53.10
2935;DHT22;2462;51.456;7.248;2023-06-10T13:28:44;30.50;55.70
2935;DHT22;2462;51.456;7.248;2023-06-10T13:31:10;30.50;54.80
2935;DHT22;2462;51.456;7.248;2023-06-10T13:33:35;30.50;53.40
2935;DHT22;2462;51.456;7.248;2023-06-10T13:36:01;30.40;53.30
2935;DHT22;2462;51.456;7.248;2023-06-10T13:38:26;30.30;53.70
2935;DHT22;2462;51.456;7.248;2023-06-10T13:40:52;30.30;53.80
2935;DHT22;2462;51.456;7.248;2023-06-10T13:43:17;30.20;53.20
2935;DHT22;2462;51.456;7.248;2023-06-10T13:45:43;30.20;53.60
2935;DHT22;2462;51.456;7.248;2023-06-10T13:48:09;30.30;54.40
2935;DHT22;2462;51.456;7.248;2023-06-10T13:50:34;30.30;54.50
2935;DHT22;2462;51.456;7.248;2023-06-10T13:53:00;30.40;54.20
2935;DHT22;2462;51.456;7.248;2023-06-10T13:55:25;30.40;54.20
2935;DHT22;2462;51.456;7.248;2023-06-10T13:57:51;30.50;54.50
2935;DHT22;2462;51.456;7.248;2023-06-10T14:00:17;30.50;53.40
2935;DHT22;2462;51.456;7.248;2023-06-10T14:02:42;30.30;53.60
2935;DHT22;2462;51.456;7.248;2023-06-10T14:05:08;30.30;54.20
2935;DHT22;2462;51.456;7.248;2023-06-10T14:07:34;30.30;53.70
2935;DHT22;2462;51.456;7.248;2023-06-10T14:10:00;30.20;53.60
2935;DHT22;2462;51.456;7.248;2023-06-10T14:12:25;30.20;54.10
2935;DHT22;2462;51.456;7.248;2023-06-10T14:14:51;30.20;55.40
2935;DHT22;2462;51.456;7.248;2023-06-10T14:17:16;30.30;55.90
2935;DHT22;2462;51.456;7.248;2023-06-10T14:19:42;30.30;54.80
2935;DHT22;2462;51.456;7.248;2023-06-10T14:22:07;30.30;55.20
2935;DHT22;2462;51.456;7.248;2023-06-10T14:24:34;30.30;54.20
2935;DHT22;2462;51.456;7.248;2023-06-10T14:27:00;30.30;55.20
2935;DHT22;2462;51.456;7.248;2023-06-10T14:29:25;30.20;53.50
2935;DHT22;2462;51.456;7.248;2023-06-10T14:31:54;30.20;54.10
2935;DHT22;2462;51.456;7.248;2023-06-10T14:34:20;30.20;54.10
2935;DHT22;2462;51.456;7.248;2023-06-10T14:36:45;30.20;55.10
2935;DHT22;2462;51.456;7.248;2023-06-10T14:39:11;30.20;54.30
2935;DHT22;2462;51.456;7.248;2023-06-10T14:41:37;30.10;53.80
2935;DHT22;2462;51.456;7.248;2023-06-10T14:44:02;30.00;54.30
2935;DHT22;2462;51.456;7.248;2023-06-10T14:46:28;30.00;54.40
2935;DHT22;2462;51.456;7.248;2023-06-10T14:48:53;30.00;54.40
2935;DHT22;2462;51.456;7.248;2023-06-10T14:51:19;29.90;53.00
2935;DHT22;2462;51.456;7.248;2023-06-10T14:53:46;29.90;53.20
2935;DHT22;2462;51.456;7.248;2023-06-10T14:56:12;30.00;53.60
2935;DHT22;2462;51.456;7.248;2023-06-10T14:58:37;30.00;54.30
2935;DHT22;2462;51.456;7.248;2023-06-10T15:01:03;30.10;54.10
2935;DHT22;2462;51.456;7.248;2023-06-10T15:03:29;30.10;53.60
2935;DHT22;2462;51.456;7.248;2023-06-10T15:05:54;30.00;52.70
2935;DHT22;2462;51.456;7.248;2023-06-10T15:08:20;30.00;53.30
2935;DHT22;2462;51.456;7.248;2023-06-10T15:10:45;29.90;53.70
2935;DHT22;2462;51.456;7.248;2023-06-10T15:13:13;29.90;54.70
2935;DHT22;2462;51.456;7.248;2023-06-10T15:15:39;30.00;55.00
2935;DHT22;2462;51.456;7.248;2023-06-10T15:18:04;30.00;54.80
2935;DHT22;2462;51.456;7.248;2023-06-10T15:20:30;30.00;54.80
2935;DHT22;2462;51.456;7.248;2023-06-10T15:22:55;30.00;56.00
2935;DHT22;2462;51.456;7.248;2023-06-10T15:25:21;30.00;54.90
2935;DHT22;2462;51.456;7.248;2023-06-10T15:27:47;30.00;54.50
2935;DHT22;2462;51.456;7.248;2023-06-10T15:30:12;30.00;55.20
2935;DHT22;2462;51.456;7.248;2023-06-10T15:32:38;30.00;55.80
2935;DHT22;2462;51.456;7.248;2023-06-10T15:35:04;30.10;55.40
2935;DHT22;2462;51.456;7.248;2023-06-10T15:37:29;30.10;55.80
2935;DHT22;2462;51.456;7.248;2023-06-10T15:39:55;30.10;55.70
2935;DHT22;2462;51.456;7.248;2023-06-10T15:42:21;30.10;56.20
2935;DHT22;2462;51.456;7.248;2023-06-10T15:44:47;30.10;55.70
2935;DHT22;2462;51.456;7.248;2023-06-10T15:47:12;30.10;54.00
2935;DHT22;2462;51.456;7.248;2023-06-10T15:49:37;30.00;54.50
2935;DHT22;2462;51.456;7.248;2023-06-10T15:52:03;30.00;54.20
2935;DHT22;2462;51.456;7.248;2023-06-10T15:54:29;29.90;54.20
2935;DHT22;2462;51.456;7.248;2023-06-10T15:56:54;29.90;55.10
2935;DHT22;2462;51.456;7.248;2023-06-10T15:59:20;29.90;55.10
2935;DHT22;2462;51.456;7.248;2023-06-10T16:01:46;29.90;55.30
2935;DHT22;2462;51.456;7.248;2023-06-10T16:04:12;29.80;54.80
2935;DHT22;2462;51.456;7.248;2023-06-10T16:06:38;29.70;55.30
2935;DHT22;2462;51.456;7.248;2023-06-10T16:09:04;29.80;55.60
2935;DHT22;2462;51.456;7.248;2023-06-10T16:11:29;29.80;56.10
2935;DHT22;2462;51.456;7.248;2023-06-10T16:13:55;29.80;55.50
2935;DHT22;2462;51.456;7.248;2023-06-10T16:16:20;29.80;55.80
2935;DHT22;2462;51.456;7.248;2023-06-10T16:18:46;29.70;55.40
2935;DHT22;2462;51.456;7.248;2023-06-10T16:21:11;29.80;55.90
2935;DHT22;2462;51.456;7.248;2023-06-10T16:23:37;29.70;56.00
2935;DHT22;2462;51.456;7.248;2023-06-10T16:26:04;29.70;56.00
2935;DHT22;2462;51.456;7.248;2023-06-10T16:28:30;29.70;56.30
2935;DHT22;2462;51.456;7.248;2023-06-10T16:30:55;29.70;56.10
2935;DHT22;2462;51.456;7.248;2023-06-10T16:33:21;29.70;56.00